Time;durP1;ratioP1;P1;durP2;ratioP2;P2;SDS_P1;SDS_P2;PMS_P1;PMS_P2;Temp;Humidity;BMP_temperature;BMP_pressure;BME280_temperature;BME280_humidity;BME280_pressure;Samples;Min_cycle;Max_cycle;Signal;HPM_P1;HPM_P2
2023/04/19 00:03:01;;;;;;;6.00;3.75;;;;;;;9.21;100.00;101915.78;6127680;28;20056;-89
2023/04/19 00:06:03;;;;;;;5.18;4.68;;;;;;;9.18;100.00;101898.69;6109860;29;20036;-88
2023/04/19 00:09:06;;;;;;;5.25;4.03;;;;;;;9.22;100.00;101900.22;6113534;28;20039;-88
2023/04/19 00:12:07;;;;;;;6.30;3.88;;;;;;;9.13;100.00;101899.84;6127763;28;20047;-88
2023/04/19 00:15:09;;;;;;;8.18;3.92;;;;;;;9.10;100.00;101903.44;6132236;28;20517;-89
2023/04/19 00:18:11;;;;;;;5.32;3.70;;;;;;;9.10;100.00;101900.84;6123605;28;20031;-89
2023/04/19 00:21:13;;;;;;;5.88;3.92;;;;;;;9.05;100.00;101895.91;6104296;28;20415;-89
2023/04/19 00:24:15;;;;;;;5.50;3.70;;;;;;;9.04;100.00;101901.13;6127072;28;20039;-89
2023/04/19 00:27:17;;;;;;;6.28;3.65;;;;;;;8.98;100.00;101891.13;6117768;28;20051;-89
2023/04/19 00:30:19;;;;;;;4.75;2.95;;;;;;;9.10;100.00;101895.69;6123573;28;20541;-89
2023/04/19 00:33:21;;;;;;;4.05;3.20;;;;;;;9.02;100.00;101896.06;6107485;28;20044;-88
2023/04/19 00:36:23;;;;;;;4.85;3.53;;;;;;;8.95;100.00;101896.47;6134720;28;20035;-88
2023/04/19 00:39:25;;;;;;;5.05;3.28;;;;;;;8.94;100.00;101892.19;6115784;28;20094;-88
2023/04/19 00:42:27;;;;;;;4.97;3.20;;;;;;;8.98;100.00;101896.28;6132137;28;20329;-89
2023/04/19 00:45:31;;;;;;;5.15;3.45;;;;;;;9.01;100.00;101899.53;6130441;28;20048;-89
2023/04/19 00:48:36;;;;;;;6.03;2.83;;;;;;;8.97;100.00;101900.63;6123752;28;20044;-89
2023/04/19 00:51:38;;;;;;;4.65;2.63;;;;;;;8.90;100.00;101903.59;6118152;28;20524;-88
2023/04/19 00:54:42;;;;;;;4.90;2.63;;;;;;;8.83;100.00;101903.06;6112608;29;20476;-88
2023/04/19 00:57:45;;;;;;;2.92;2.42;;;;;;;8.73;100.00;101902.66;6120745;28;20652;-89
2023/04/19 01:00:47;;;;;;;5.88;3.20;;;;;;;8.73;100.00;101900.09;6099414;28;20688;-88
2023/04/19 01:03:48;;;;;;;3.95;2.80;;;;;;;8.74;100.00;101904.31;6119141;28;20111;-89
2023/04/19 01:06:53;;;;;;;3.53;2.70;;;;;;;8.62;100.00;101902.34;6113251;28;20054;-89
2023/04/19 01:09:55;;;;;;;6.20;2.88;;;;;;;8.60;100.00;101911.94;6105530;28;20055;-89
2023/04/19 01:12:57;;;;;;;4.68;2.55;;;;;;;8.46;100.00;101909.19;6119445;28;20040;-89
2023/04/19 01:15:59;;;;;;;5.72;2.58;;;;;;;8.24;100.00;101904.16;6122228;28;20047;-90
2023/04/19 01:19:01;;;;;;;5.22;3.15;;;;;;;8.02;100.00;101900.00;6111922;29;20047;-89
2023/04/19 01:22:05;;;;;;;5.03;2.80;;;;;;;7.95;100.00;101896.88;6120001;29;20086;-89
2023/04/19 01:25:07;;;;;;;4.70;2.92;;;;;;;7.71;100.00;101900.56;6100468;28;20220;-89
2023/04/19 01:28:10;;;;;;;3.83;2.60;;;;;;;7.56;100.00;101902.06;6115867;28;20055;-89
2023/04/19 01:31:11;;;;;;;4.10;2.58;;;;;;;7.37;100.00;101902.03;6103765;28;20066;-89
2023/04/19 01:34:13;;;;;;;4.82;2.80;;;;;;;7.23;100.00;101894.91;6107759;28;20752;-89
2023/04/19 01:37:15;;;;;;;4.32;2.78;;;;;;;7.14;100.00;101903.03;6121888;28;21000;-89
2023/04/19 01:40:18;;;;;;;3.75;2.25;;;;;;;6.94;100.00;101903.03;6124557;28;20043;-89
2023/04/19 01:43:19;;;;;;;4.75;2.53;;;;;;;6.83;100.00;101906.91;6108043;29;20047;-88
2023/04/19 01:46:21;;;;;;;5.90;2.90;;;;;;;6.74;100.00;101902.13;6110488;29;20052;-89
2023/04/19 01:49:26;;;;;;;3.75;2.50;;;;;;;6.67;100.00;101905.81;6126763;28;20054;-89
2023/04/19 01:52:28;;;;;;;3.50;2.47;;;;;;;6.51;100.00;101907.31;6117479;28;20050;-89
2023/04/19 01:55:30;;;;;;;5.80;2.63;;;;;;;6.68;100.00;101903.19;6126266;28;20055;-89
2023/04/19 01:58:32;;;;;;;3.35;2.28;;;;;;;6.52;100.00;101901.31;6103372;28;20624;-89
2023/04/19 02:01:34;;;;;;;4.95;2.97;;;;;;;6.39;100.00;101895.81;6114713;28;20051;-89
2023/04/19 02:04:36;;;;;;;3.13;2.05;;;;;;;6.52;100.00;101896.16;6137539;28;20404;-88
2023/04/19 02:07:39;;;;;;;3.45;2.67;;;;;;;6.28;100.00;101888.50;6104987;29;20055;-88
2023/04/19 02:10:41;;;;;;;4.50;2.75;;;;;;;6.19;100.00;101887.13;6118548;28;20046;-89
2023/04/19 02:13:43;;;;;;;4.97;2.65;;;;;;;6.30;100.00;101891.84;6107473;29;20047;-89
2023/04/19 02:16:45;;;;;;;5.28;2.40;;;;;;;6.15;100.00;101885.56;6131827;28;20071;-89
2023/04/19 02:19:47;;;;;;;4.05;2.25;;;;;;;6.07;100.00;101882.47;6116506;28;20742;-89
2023/04/19 02:22:49;;;;;;;3.72;2.60;;;;;;;5.99;100.00;101897.34;6114375;28;20641;-88
2023/04/19 02:25:51;;;;;;;4.40;2.50;;;;;;;5.88;100.00;101891.72;6125426;28;20455;-89
2023/04/19 02:28:52;;;;;;;4.63;2.65;;;;;;;5.79;100.00;101898.06;6106165;28;20054;-89
2023/04/19 02:31:54;;;;;;;5.53;2.42;;;;;;;5.79;100.00;101896.31;6132897;28;20421;-89
2023/04/19 02:34:56;;;;;;;4.00;2.47;;;;;;;5.82;100.00;101900.50;6107324;28;20073;-88
2023/04/19 02:38:04;;;;;;;3.85;3.15;;;;;;;5.74;100.00;101905.94;6115718;28;20052;-89
2023/04/19 02:41:06;;;;;;;4.75;2.70;;;;;;;5.66;100.00;101907.91;6131058;28;20085;-89
2023/04/19 02:44:08;;;;;;;5.40;2.63;;;;;;;5.59;100.00;101909.06;6107401;28;20083;-88
2023/04/19 02:47:10;;;;;;;3.53;2.60;;;;;;;5.64;100.00;101908.88;6117465;28;20194;-89
2023/04/19 02:50:12;;;;;;;3.85;2.58;;;;;;;5.63;100.00;101905.47;6136028;28;20043;-89
2023/04/19 02:53:20;;;;;;;4.10;2.45;;;;;;;5.57;100.00;101910.84;6105931;28;20043;-88
2023/04/19 02:56:23;;;;;;;3.47;2.42;;;;;;;5.45;100.00;101906.97;6139000;28;20408;-89
2023/04/19 02:59:27;;;;;;;6.43;3.13;;;;;;;5.44;100.00;101913.00;6105714;29;20142;-89
2023/04/19 03:02:32;;;;;;;3.53;2.38;;;;;;;5.46;100.00;101907.78;6111939;28;20062;-89
2023/04/19 03:05:34;;;;;;;4.65;2.60;;;;;;;5.35;100.00;101898.75;6110364;28;20490;-88
2023/04/19 03:08:36;;;;;;;4.10;2.70;;;;;;;5.27;100.00;101897.34;6104151;28;20047;-89
2023/04/19 03:11:39;;;;;;;5.63;2.70;;;;;;;5.15;100.00;101912.25;6118495;28;20187;-89
2023/04/19 03:14:41;;;;;;;4.07;2.42;;;;;;;5.04;100.00;101909.22;6106884;28;20052;-89
2023/04/19 03:17:44;;;;;;;3.22;2.30;;;;;;;5.05;100.00;101904.94;6122890;28;20146;-88
2023/04/19 03:20:47;;;;;;;3.58;2.22;;;;;;;5.02;100.00;101899.88;6137344;28;20043;-89
2023/04/19 03:23:49;;;;;;;3.60;2.30;;;;;;;5.00;100.00;101899.13;6112547;28;20760;-89
2023/04/19 03:26:51;;;;;;;2.83;2.30;;;;;;;4.95;100.00;101905.25;6102864;28;20155;-89
2023/04/19 03:29:57;;;;;;;5.38;2.53;;;;;;;4.97;100.00;101898.34;6107491;28;20444;-89
2023/04/19 03:33:03;;;;;;;2.65;2.08;;;;;;;4.88;100.00;101890.09;6113143;28;20417;-89
2023/04/19 03:36:08;;;;;;;3.30;2.67;;;;;;;4.89;100.00;101900.28;6102306;28;20584;-89
2023/04/19 03:39:12;;;;;;;6.82;2.35;;;;;;;4.85;100.00;101895.34;6117126;28;20031;-89
2023/04/19 03:42:15;;;;;;;4.18;2.55;;;;;;;4.84;100.00;101886.78;6115706;28;20046;-89
2023/04/19 03:45:36;;;;;;;5.47;2.35;;;;;;;4.86;100.00;101884.19;6127217;28;20047;-89
2023/04/19 03:48:38;;;;;;;4.30;2.22;;;;;;;4.89;100.00;101884.06;6128098;28;20039;-89
2023/04/19 03:51:41;;;;;;;2.78;2.20;;;;;;;4.88;100.00;101878.09;6126821;28;20557;-89
2023/04/19 03:54:43;;;;;;;4.80;2.33;;;;;;;4.93;100.00;101878.78;6116539;28;20051;-90
2023/04/19 03:57:58;;;;;;;2.72;2.10;;;;;;;4.95;100.00;101879.59;6126593;28;20055;-89
2023/04/19 04:01:17;;;;;;;3.15;2.28;;;;;;;4.95;100.00;101884.72;6109485;28;20052;-89
2023/04/19 04:04:19;;;;;;;6.03;2.58;;;;;;;4.89;100.00;101878.94;6104226;28;20430;-89
2023/04/19 04:07:23;;;;;;;4.45;2.40;;;;;;;4.91;100.00;101877.16;6102778;29;20048;-89
2023/04/19 04:10:25;;;;;;;4.68;2.40;;;;;;;4.87;100.00;101880.72;6103706;28;20082;-89
2023/04/19 04:13:27;;;;;;;4.05;2.15;;;;;;;4.86;100.00;101881.63;6114959;28;20044;-89
2023/04/19 04:16:40;;;;;;;4.80;2.10;;;;;;;4.84;100.00;101880.81;6107974;28;20098;-89
2023/04/19 04:19:42;;;;;;;6.68;2.00;;;;;;;4.83;100.00;101885.13;6113954;28;20058;-89
2023/04/19 04:22:46;;;;;;;3.38;2.22;;;;;;;4.85;100.00;101882.50;6111275;28;20520;-89
2023/04/19 04:26:00;;;;;;;5.70;2.85;;;;;;;4.85;100.00;101888.47;6110639;28;20051;-89
2023/04/19 04:29:14;;;;;;;6.80;2.78;;;;;;;4.93;100.00;101883.09;6106492;28;20058;-89
2023/04/19 04:32:17;;;;;;;8.05;2.90;;;;;;;4.81;100.00;101888.63;6122530;28;20054;-89
2023/04/19 04:35:20;;;;;;;4.40;2.50;;;;;;;4.74;100.00;101888.84;6122881;28;20043;-89
2023/04/19 04:38:36;;;;;;;4.32;2.50;;;;;;;4.77;100.00;101887.91;6127129;28;20051;-89
2023/04/19 04:41:41;;;;;;;5.45;2.50;;;;;;;4.75;100.00;101887.94;6129943;28;20035;-89
2023/04/19 04:44:46;;;;;;;5.82;2.40;;;;;;;4.87;100.00;101893.53;6106300;29;20433;-89
2023/04/19 04:47:50;;;;;;;4.57;2.50;;;;;;;4.97;100.00;101895.75;6110246;29;20048;-88
2023/04/19 04:50:52;;;;;;;4.90;2.47;;;;;;;4.97;100.00;101894.94;6105919;28;20510;-89
2023/04/19 04:53:55;;;;;;;6.10;2.55;;;;;;;5.04;100.00;101896.38;6106459;28;20118;-89
2023/04/19 04:56:58;;;;;;;4.78;2.22;;;;;;;5.06;100.00;101901.47;6116660;28;20056;-89
2023/04/19 05:00:00;;;;;;;4.95;2.20;;;;;;;5.14;100.00;101899.47;6109226;28;20126;-89
2023/04/19 05:03:08;;;;;;;2.88;2.28;;;;;;;5.18;100.00;101891.63;6111701;28;20517;-89
2023/04/19 05:06:18;;;;;;;4.63;2.20;;;;;;;5.22;100.00;101894.94;6102983;28;20059;-89
2023/04/19 05:09:20;;;;;;;5.32;2.60;;;;;;;5.25;100.00;101897.38;6117513;28;20078;-89
2023/04/19 05:12:22;;;;;;;4.95;2.50;;;;;;;5.24;100.00;101895.72;6125410;28;20098;-88
2023/04/19 05:15:24;;;;;;;6.30;2.50;;;;;;;5.30;100.00;101898.06;6112535;28;20062;-89
2023/04/19 05:18:29;;;;;;;7.15;2.70;;;;;;;5.27;100.00;101898.19;6107831;28;20052;-89
2023/04/19 05:21:33;;;;;;;5.18;2.70;;;;;;;5.31;100.00;101901.47;6105551;28;20514;-89
2023/04/19 05:24:38;;;;;;;4.22;2.47;;;;;;;5.34;100.00;101897.09;6107248;28;20062;-89
2023/04/19 05:27:43;;;;;;;4.47;2.30;;;;;;;5.38;100.00;101896.06;6095020;28;20704;-89
2023/04/19 05:30:46;;;;;;;5.07;2.20;;;;;;;5.42;100.00;101896.81;6110132;28;20050;-89
2023/04/19 05:33:48;;;;;;;3.28;2.22;;;;;;;5.41;100.00;101902.81;6112211;28;20047;-89
2023/04/19 05:36:50;;;;;;;3.60;2.30;;;;;;;5.36;100.00;101891.88;6101428;28;20063;-89
2023/04/19 05:39:52;;;;;;;4.65;2.33;;;;;;;5.36;100.00;101897.00;6106373;28;20080;-89
2023/04/19 05:42:54;;;;;;;4.22;2.30;;;;;;;5.34;100.00;101893.66;6124746;28;20410;-89
2023/04/19 05:45:56;;;;;;;4.95;1.98;;;;;;;5.46;100.00;101888.09;6123509;28;20421;-89
2023/04/19 05:48:59;;;;;;;2.75;2.20;;;;;;;5.48;100.00;101886.31;6090237;28;20051;-89
2023/04/19 05:52:01;;;;;;;3.80;1.90;;;;;;;5.61;100.00;101885.00;6121954;28;20811;-89
2023/04/19 05:55:15;;;;;;;7.13;2.95;;;;;;;5.70;100.00;101880.41;6098883;28;20059;-88
2023/04/19 05:58:20;;;;;;;4.65;2.38;;;;;;;5.76;100.00;101880.16;6107233;28;20039;-89
2023/04/19 06:01:23;;;;;;;3.88;2.10;;;;;;;5.90;100.00;101882.22;6104584;28;20422;-89
2023/04/19 06:04:25;;;;;;;5.05;2.30;;;;;;;5.99;100.00;101880.19;6103273;28;20071;-89
2023/04/19 06:07:28;;;;;;;3.25;2.03;;;;;;;6.24;100.00;101880.06;6084659;28;20052;-89
2023/04/19 06:10:36;;;;;;;4.35;2.40;;;;;;;6.37;100.00;101882.16;6100493;29;20079;-89
2023/04/19 06:13:55;;;;;;;2.30;1.70;;;;;;;6.56;100.00;101889.97;6115421;28;20043;-89
2023/04/19 06:16:57;;;;;;;7.78;2.17;;;;;;;6.65;100.00;101885.28;6108032;28;20090;-88
2023/04/19 06:19:59;;;;;;;2.40;1.90;;;;;;;6.82;100.00;101884.63;6119408;28;20059;-88
2023/04/19 06:23:01;;;;;;;3.83;2.50;;;;;;;6.95;100.00;101881.53;6112019;28;20465;-88
2023/04/19 06:26:03;;;;;;;5.25;1.95;;;;;;;7.12;100.00;101882.47;6122006;28;20052;-89
2023/04/19 06:29:05;;;;;;;4.85;2.38;;;;;;;7.18;100.00;101880.53;6129591;28;20043;-89
2023/04/19 06:32:08;;;;;;;5.25;2.08;;;;;;;7.21;100.00;101875.28;6130208;28;20160;-89
2023/04/19 06:35:10;;;;;;;3.25;2.17;;;;;;;7.27;100.00;101875.00;6100213;28;20067;-89
2023/04/19 06:38:12;;;;;;;5.38;2.17;;;;;;;7.21;100.00;101870.97;6124177;28;20402;-88
2023/04/19 06:41:15;;;;;;;3.30;2.10;;;;;;;7.29;100.00;101876.63;6124309;28;20052;-89
2023/04/19 06:44:17;;;;;;;2.50;2.10;;;;;;;7.24;100.00;101875.97;6123904;28;20058;-89
2023/04/19 06:47:19;;;;;;;5.07;2.03;;;;;;;7.25;100.00;101871.66;6120267;28;20048;-88
2023/04/19 06:50:21;;;;;;;6.75;2.25;;;;;;;7.18;100.00;101871.09;6119457;28;20051;-87
2023/04/19 06:53:23;;;;;;;2.85;1.88;;;;;;;7.23;100.00;101863.16;6103756;28;20127;-88
2023/04/19 06:56:47;;;;;;;3.72;1.83;;;;;;;7.15;100.00;101860.91;6112950;28;20047;-87
2023/04/19 06:59:49;;;;;;;3.35;2.10;;;;;;;7.26;100.00;101865.63;6127860;28;20039;-88
2023/04/19 07:02:52;;;;;;;3.75;1.95;;;;;;;7.22;100.00;101849.44;6127084;28;20509;-87
2023/04/19 07:05:55;;;;;;;2.92;1.80;;;;;;;7.19;100.00;101857.31;6139045;28;20047;-88
2023/04/19 07:08:57;;;;;;;3.63;2.58;;;;;;;7.24;100.00;101854.53;6116789;28;20052;-88
2023/04/19 07:12:00;;;;;;;6.97;3.10;;;;;;;7.22;100.00;101851.19;6118360;28;20112;-88
2023/04/19 07:15:02;;;;;;;4.72;1.85;;;;;;;7.32;100.00;101848.13;6121801;28;20557;-88
2023/04/19 07:18:04;;;;;;;3.22;1.60;;;;;;;7.46;100.00;101846.72;6122976;28;20048;-88
2023/04/19 07:21:06;;;;;;;2.47;1.63;;;;;;;7.41;100.00;101846.09;6129695;28;20039;-88
2023/04/19 07:24:08;;;;;;;4.72;1.85;;;;;;;7.31;100.00;101832.78;6111192;28;20513;-88
2023/04/19 07:27:13;;;;;;;3.63;1.80;;;;;;;7.48;100.00;101842.34;6115236;28;20055;-88
2023/04/19 07:30:15;;;;;;;4.32;2.00;;;;;;;7.49;100.00;101829.38;6102332;28;20048;-88
2023/04/19 07:33:16;;;;;;;2.70;1.70;;;;;;;7.47;100.00;101835.50;6120085;28;20062;-88
2023/04/19 07:36:20;;;;;;;2.42;1.70;;;;;;;7.55;100.00;101833.41;6123502;28;20040;-88
2023/04/19 07:39:22;;;;;;;4.03;1.48;;;;;;;7.58;100.00;101827.25;6120691;28;20407;-88
2023/04/19 07:42:24;;;;;;;3.72;1.90;;;;;;;7.61;100.00;101824.56;6109901;28;20047;-88
2023/04/19 07:45:26;;;;;;;2.05;1.73;;;;;;;7.72;100.00;101822.31;6108017;28;20051;-88
2023/04/19 07:48:28;;;;;;;3.80;1.58;;;;;;;7.82;100.00;101825.31;6104620;28;20047;-88
2023/04/19 07:51:31;;;;;;;4.22;2.35;;;;;;;7.95;100.00;101822.09;6123922;28;20054;-88
2023/04/19 07:54:38;;;;;;;4.68;2.40;;;;;;;7.92;100.00;101822.22;6147210;28;20453;-89
2023/04/19 07:57:44;;;;;;;3.10;1.80;;;;;;;7.86;100.00;101819.94;6121458;28;20070;-88
2023/04/19 08:00:46;;;;;;;3.15;1.65;;;;;;;7.86;100.00;101822.53;6137329;28;20145;-88
2023/04/19 08:03:51;;;;;;;2.58;1.80;;;;;;;7.95;100.00;101826.44;6134340;28;20051;-88
2023/04/19 08:06:55;;;;;;;4.85;2.08;;;;;;;8.04;100.00;101820.81;6135806;28;20409;-88
2023/04/19 08:09:57;;;;;;;2.58;1.55;;;;;;;8.14;100.00;101811.72;6135575;28;20055;-88
2023/04/19 08:12:59;;;;;;;5.22;2.15;;;;;;;8.19;100.00;101808.94;6132420;28;20039;-88
2023/04/19 08:16:06;;;;;;;3.17;1.75;;;;;;;8.18;100.00;101813.25;6109642;28;20063;-89
2023/04/19 08:19:11;;;;;;;3.70;1.80;;;;;;;8.23;100.00;101810.47;6139351;28;20599;-88
2023/04/19 08:22:13;;;;;;;3.15;1.67;;;;;;;8.24;100.00;101809.53;6102701;28;20466;-88
2023/04/19 08:25:15;;;;;;;3.47;1.92;;;;;;;8.43;100.00;101806.94;6126429;28;20525;-88
2023/04/19 08:28:18;;;;;;;3.53;1.80;;;;;;;8.54;100.00;101799.50;6133680;28;20092;-88
2023/04/19 08:31:20;;;;;;;2.03;1.48;;;;;;;8.53;100.00;101799.59;6116911;28;20059;-89
2023/04/19 08:34:22;;;;;;;7.32;2.00;;;;;;;8.53;100.00;101797.00;6133717;28;20133;-88
2023/04/19 08:37:24;;;;;;;2.30;1.75;;;;;;;8.62;95.25;101791.34;6135738;28;20051;-89
2023/04/19 08:40:26;;;;;;;2.05;1.67;;;;;;;8.67;89.80;101794.56;6129475;28;20044;-88
2023/04/19 08:43:32;;;;;;;4.35;1.92;;;;;;;8.74;90.16;101790.75;6134698;28;20055;-88
2023/04/19 08:46:35;;;;;;;4.45;1.65;;;;;;;8.82;90.55;101782.63;6121165;28;20042;-88
2023/04/19 08:49:39;;;;;;;4.32;1.92;;;;;;;8.90;85.89;101785.66;6128526;28;20043;-89
2023/04/19 08:52:45;;;;;;;3.50;1.65;;;;;;;8.90;83.33;101777.06;6118476;28;20059;-89
2023/04/19 08:55:58;;;;;;;2.72;1.60;;;;;;;9.01;84.78;101780.75;6137971;28;20284;-88
2023/04/19 08:59:03;;;;;;;3.00;1.80;;;;;;;9.12;87.09;101780.19;6131714;28;20500;-89
2023/04/19 09:02:21;;;;;;;2.55;1.80;;;;;;;9.23;79.70;101777.03;6123861;28;20047;-88
2023/04/19 09:05:23;;;;;;;3.47;1.90;;;;;;;9.17;85.79;101765.28;6110758;28;20058;-87
2023/04/19 09:08:33;;;;;;;2.63;1.85;;;;;;;9.28;81.95;101767.28;6134423;28;20042;-88
2023/04/19 09:11:42;;;;;;;3.65;2.05;;;;;;;9.34;75.04;101755.78;6133844;28;20107;-88
2023/04/19 09:14:51;;;;;;;2.50;2.10;;;;;;;9.39;72.22;101764.97;6127482;28;20048;-88
2023/04/19 09:18:05;;;;;;;2.05;1.70;;;;;;;9.47;72.63;101761.97;6125837;28;20036;-88
2023/04/19 09:21:07;;;;;;;2.70;1.70;;;;;;;9.50;76.48;101759.22;6122912;28;20608;-88
2023/04/19 09:24:09;;;;;;;3.13;1.70;;;;;;;9.57;73.62;101757.97;6136842;28;20051;-88
2023/04/19 09:27:11;;;;;;;4.13;2.00;;;;;;;9.61;72.36;101749.09;6126250;28;20046;-88
2023/04/19 09:30:13;;;;;;;2.30;1.60;;;;;;;9.67;67.77;101750.53;6128674;28;20043;-88
2023/04/19 09:33:38;;;;;;;3.33;1.70;;;;;;;9.69;68.99;101746.13;6126736;28;20043;-87
2023/04/19 09:36:40;;;;;;;3.28;1.90;;;;;;;9.88;77.45;101738.97;6118256;28;20126;-87
2023/04/19 09:39:42;;;;;;;2.75;1.40;;;;;;;9.93;69.67;101731.78;6133510;28;20488;-87
2023/04/19 09:42:47;;;;;;;3.65;1.65;;;;;;;10.05;65.85;101729.44;6127878;28;20207;-87
2023/04/19 09:45:52;;;;;;;3.92;1.70;;;;;;;10.08;67.61;101730.06;6124086;28;20491;-87
2023/04/19 09:48:54;;;;;;;3.25;1.80;;;;;;;10.18;62.63;101725.22;6120787;28;20575;-87
2023/04/19 09:51:56;;;;;;;3.22;1.83;;;;;;;10.19;61.68;101713.13;6125615;28;20047;-87
2023/04/19 09:55:09;;;;;;;2.83;1.70;;;;;;;10.22;62.35;101716.34;6133934;28;20048;-87
2023/04/19 09:58:26;;;;;;;5.07;1.85;;;;;;;10.25;59.19;101699.81;6110158;28;20068;-87
2023/04/19 10:01:52;;;;;;;3.88;1.70;;;;;;;10.31;64.88;101691.72;6123682;28;20048;-87
2023/04/19 10:04:56;;;;;;;5.50;1.92;;;;;;;10.40;71.17;101698.94;6095090;28;20051;-87
2023/04/19 10:08:18;;;;;;;3.55;1.70;;;;;;;10.50;70.19;101689.69;6132397;28;20039;-88
2023/04/19 10:11:21;;;;;;;3.38;1.70;;;;;;;10.64;67.54;101682.88;6125304;28;20047;-87
2023/04/19 10:14:26;;;;;;;2.25;1.58;;;;;;;10.81;65.60;101681.81;6122513;28;20397;-88
2023/04/19 10:17:28;;;;;;;3.63;1.95;;;;;;;10.87;62.03;101679.69;6123581;28;20039;-88
2023/04/19 10:20:42;;;;;;;2.92;1.80;;;;;;;10.87;63.46;101681.47;6133487;28;20039;-87
2023/04/19 10:23:44;;;;;;;3.35;1.67;;;;;;;10.88;59.88;101671.03;6107444;28;20058;-88
2023/04/19 10:27:15;;;;;;;5.50;1.95;;;;;;;10.93;64.41;101658.59;6129265;28;20044;-88
2023/04/19 10:30:18;;;;;;;;;;;;;;;11.03;61.90;101645.06;6063524;29;20505;-88
2023/04/19 10:33:29;;;;;;;2.17;1.80;;;;;;;11.09;59.46;101642.09;6060655;29;20619;-88
2023/04/19 10:36:32;;;;;;;3.85;2.35;;;;;;;11.17;61.73;101645.84;6062739;29;20072;-87
2023/04/19 10:39:47;;;;;;;3.33;1.90;;;;;;;11.31;62.44;101628.59;6048157;29;20080;-87
2023/04/19 10:43:11;;;;;;;2.67;1.70;;;;;;;11.57;62.07;101630.31;6063093;29;20044;-88
2023/04/19 10:46:19;;;;;;;4.00;1.63;;;;;;;11.74;58.22;101620.59;6064018;29;20063;-88
2023/04/19 10:49:22;;;;;;;2.92;1.98;;;;;;;11.78;56.25;101617.72;6062942;29;20089;-88
2023/04/19 10:52:30;;;;;;;2.25;1.70;;;;;;;11.87;52.88;101618.06;6062912;29;20581;-88
2023/04/19 10:55:32;;;;;;;2.45;1.60;;;;;;;11.84;54.20;101599.13;6062356;29;20775;-87
2023/04/19 10:59:20;;;;;;;3.55;1.80;;;;;;;11.89;49.21;101604.03;6063963;29;20392;-88
2023/04/19 11:02:23;;;;;;;2.90;1.63;;;;;;;11.97;48.96;101577.56;6064266;29;20063;-88
2023/04/19 11:05:26;;;;;;;1.60;1.40;;;;;;;12.13;52.86;101575.59;6067982;29;20514;-87
2023/04/19 11:08:28;;;;;;;3.65;1.75;;;;;;;12.26;49.82;101567.81;6127511;28;20043;-87
2023/04/19 11:11:37;;;;;;;1.67;1.30;;;;;;;12.26;48.90;101571.22;6105861;28;20521;-88
2023/04/19 11:14:41;;;;;;;2.92;1.40;;;;;;;12.34;46.68;101564.66;6109195;28;20440;-88
2023/04/19 11:17:48;;;;;;;2.38;1.58;;;;;;;12.38;46.18;101553.97;6134395;28;20580;-88
2023/04/19 11:21:19;;;;;;;3.67;1.63;;;;;;;12.51;46.68;101553.94;6135765;28;20515;-89
2023/04/19 11:24:21;;;;;;;4.55;1.60;;;;;;;12.53;49.82;101544.25;6134247;28;20047;-88
2023/04/19 11:27:24;;;;;;;3.22;1.52;;;;;;;12.56;45.75;101556.22;6124427;28;20095;-88
2023/04/19 11:30:29;;;;;;;2.25;1.67;;;;;;;12.61;43.95;101546.31;6130696;28;20211;-88
2023/04/19 11:33:37;;;;;;;2.20;1.67;;;;;;;12.58;44.03;101552.56;6123629;28;20039;-88
2023/04/19 11:36:52;;;;;;;2.85;1.67;;;;;;;12.55;45.80;101538.97;6131871;28;20425;-90
2023/04/19 11:39:54;;;;;;;2.97;1.80;;;;;;;12.61;45.46;101536.75;6120297;28;20050;-89
2023/04/19 11:43:02;;;;;;;2.50;1.80;;;;;;;12.67;47.52;101538.94;6111057;28;20758;-89
2023/04/19 11:46:12;;;;;;;5.32;1.70;;;;;;;12.80;44.28;101531.06;6113866;28;20071;-88
2023/04/19 11:49:28;;;;;;;3.90;2.27;;;;;;;12.93;47.13;101531.00;6119545;28;20055;-88
2023/04/19 11:52:34;;;;;;;3.38;1.70;;;;;;;13.11;45.70;101527.06;6120007;28;20488;-89
2023/04/19 11:55:36;;;;;;;2.30;1.63;;;;;;;13.10;44.88;101528.00;6129399;28;20051;-88
2023/04/19 11:58:42;;;;;;;2.50;1.63;;;;;;;13.17;45.59;101520.59;6128757;28;20043;-88
2023/04/19 12:01:44;;;;;;;4.63;1.70;;;;;;;13.31;45.55;101514.38;6114606;28;20043;-88
2023/04/19 12:04:46;;;;;;;2.47;1.70;;;;;;;13.41;44.59;101515.34;6113625;28;20516;-88
2023/04/19 12:08:03;;;;;;;4.03;1.90;;;;;;;13.61;45.60;101523.44;6115687;28;20450;-88
2023/04/19 12:11:05;;;;;;;2.22;1.83;;;;;;;13.63;42.87;101508.53;6118215;28;20118;-88
2023/04/19 12:14:12;;;;;;;2.08;1.80;;;;;;;13.66;43.31;101508.28;6116449;28;20044;-88
2023/04/19 12:17:15;;;;;;;4.65;1.90;;;;;;;13.58;42.26;101504.50;6122262;28;20050;-88
2023/04/19 12:20:33;;;;;;;4.22;1.70;;;;;;;13.66;43.27;101506.50;6129834;28;20896;-89
2023/04/19 12:23:35;;;;;;;4.28;2.15;;;;;;;13.81;42.90;101504.50;6127342;28;20398;-89
2023/04/19 12:26:57;;;;;;;2.22;1.80;;;;;;;13.95;42.85;101503.47;6118726;28;20124;-89
2023/04/19 12:30:01;;;;;;;2.95;2.05;;;;;;;14.02;42.85;101493.41;6131285;28;20052;-89
2023/04/19 12:33:03;;;;;;;3.17;1.80;;;;;;;14.27;44.36;101498.34;6127389;28;20047;-89
2023/04/19 12:36:06;;;;;;;3.50;2.45;;;;;;;14.55;44.33;101486.56;6108851;28;20404;-89
2023/04/19 12:39:08;;;;;;;2.63;2.10;;;;;;;14.46;42.25;101476.88;6096222;28;20231;-89
2023/04/19 12:42:10;;;;;;;5.45;2.28;;;;;;;14.35;43.28;101477.72;6131590;28;20414;-88
2023/04/19 12:45:13;;;;;;;3.22;2.10;;;;;;;14.49;42.10;101483.59;6125062;28;20573;-89
2023/04/19 12:48:15;;;;;;;2.42;1.83;;;;;;;14.34;43.32;101477.84;6127163;28;20047;-88
2023/04/19 12:51:16;;;;;;;3.95;2.22;;;;;;;14.87;43.63;101467.50;6120931;28;20054;-89
2023/04/19 12:54:18;;;;;;;4.45;1.80;;;;;;;15.26;40.51;101467.75;6116973;28;20055;-89
2023/04/19 12:57:20;;;;;;;2.35;1.60;;;;;;;15.67;41.53;101473.84;6135777;28;20047;-90
2023/04/19 13:00:23;;;;;;;3.38;2.20;;;;;;;15.34;40.11;101454.06;6139457;28;20042;-89
2023/04/19 13:03:25;;;;;;;3.83;1.98;;;;;;;15.74;41.34;101461.16;6132896;28;20418;-89
2023/04/19 13:06:27;;;;;;;2.95;1.90;;;;;;;16.22;40.55;101468.28;6114716;28;20499;-89
2023/04/19 13:09:30;;;;;;;3.22;2.00;;;;;;;16.65;41.25;101465.31;6140426;28;20137;-89
2023/04/19 13:12:36;;;;;;;2.03;1.80;;;;;;;16.91;39.98;101460.34;6123240;28;20618;-89
2023/04/19 13:15:40;;;;;;;3.13;1.90;;;;;;;16.76;40.90;101457.31;6124511;28;20739;-90
2023/04/19 13:18:42;;;;;;;4.32;2.08;;;;;;;16.35;40.34;101451.41;6130378;28;20126;-89
2023/04/19 13:21:44;;;;;;;3.88;1.90;;;;;;;16.30;40.42;101453.59;6124527;28;20105;-89
2023/04/19 13:24:46;;;;;;;2.78;2.05;;;;;;;16.28;41.80;101454.69;6116766;28;20048;-89
2023/04/19 13:27:54;;;;;;;3.67;2.08;;;;;;;15.90;41.38;101448.44;6123702;28;20458;-90
2023/04/19 13:30:56;;;;;;;3.75;2.45;;;;;;;15.42;41.51;101452.44;6134376;28;20150;-89
2023/04/19 13:33:59;;;;;;;9.32;2.45;;;;;;;14.99;42.33;101444.81;6133597;28;20477;-89
2023/04/19 13:37:01;;;;;;;4.18;1.90;;;;;;;14.84;42.65;101442.50;6124219;28;20047;-89
2023/04/19 13:40:10;;;;;;;4.50;2.40;;;;;;;14.56;43.15;101438.72;6119132;28;20047;-88
2023/04/19 13:43:41;;;;;;;7.60;2.40;;;;;;;14.48;44.03;101448.06;6126187;28;20043;-89
2023/04/19 13:46:42;;;;;;;4.25;2.70;;;;;;;14.45;45.34;101443.94;6119338;28;20501;-90
2023/04/19 13:49:50;;;;;;;3.05;2.15;;;;;;;14.46;44.91;101444.75;6142495;28;20047;-89
2023/04/19 13:52:53;;;;;;;2.80;2.05;;;;;;;14.48;44.36;101430.66;6105960;28;20457;-89
2023/04/19 13:55:55;;;;;;;8.52;2.22;;;;;;;14.83;44.80;101422.63;6113079;28;20054;-89
2023/04/19 13:58:57;;;;;;;7.90;2.80;;;;;;;15.48;45.11;101414.59;6126983;28;20597;-89
2023/04/19 14:02:02;;;;;;;3.92;2.25;;;;;;;16.24;44.36;101411.50;6131959;28;20525;-89
2023/04/19 14:05:05;;;;;;;3.20;2.45;;;;;;;16.41;43.43;101418.66;6126138;28;20117;-89
2023/04/19 14:08:07;;;;;;;5.53;2.60;;;;;;;16.14;42.91;101411.47;6129549;28;20067;-89
2023/04/19 14:11:09;;;;;;;5.25;2.80;;;;;;;15.47;42.43;101410.31;6109376;28;20054;-89
2023/04/19 14:14:11;;;;;;;4.93;2.70;;;;;;;14.84;43.28;101416.44;6129730;28;20218;-90
2023/04/19 14:17:13;;;;;;;4.30;2.42;;;;;;;14.32;45.58;101419.84;6110945;28;20042;-89
2023/04/19 14:20:16;;;;;;;4.82;2.60;;;;;;;13.95;47.43;101402.75;6111509;28;20066;-89
2023/04/19 14:23:18;;;;;;;2.60;2.25;;;;;;;14.54;47.46;101411.16;6127128;28;20043;-90